sensor_id;sensor_type;location;lat;lon;timestamp;pressure;altitude;pressure_sealevel;temperature;humidity
57708;BME280;43540;51.690;9.562;2023-07-13T14:31:02;99294.16;;;22.51;49.54
57708;BME280;43540;51.690;9.562;2023-07-13T14:33:29;99299.31;;;22.98;50.59
57708;BME280;43540;51.690;9.562;2023-07-13T14:35:56;99311.00;;;23.24;51.10
57708;BME280;43540;51.690;9.562;2023-07-13T14:38:23;99268.06;;;22.86;51.32
57708;BME280;43540;51.690;9.562;2023-07-13T14:40:49;99278.31;;;23.09;49.82
57708;BME280;43540;51.690;9.562;2023-07-13T14:43:17;99312.59;;;23.38;50.56
57708;BME280;43540;51.690;9.562;2023-07-13T14:45:49;99263.16;;;22.89;50.75
57708;BME280;43540;51.690;9.562;2023-07-13T14:48:24;99251.00;;;22.67;48.55
57708;BME280;43540;51.690;9.562;2023-07-13T14:50:54;99314.72;;;22.83;50.23
57708;BME280;43540;51.690;9.562;2023-07-13T14:53:24;99268.06;;;22.53;49.63
57708;BME280;43540;51.690;9.562;2023-07-13T14:55:50;99279.78;;;22.65;51.17
57708;BME280;43540;51.690;9.562;2023-07-13T14:58:17;99265.19;;;22.41;52.80
57708;BME280;43540;51.690;9.562;2023-07-13T15:00:44;99259.00;;;22.67;53.66
57708;BME280;43540;51.690;9.562;2023-07-13T15:03:23;99223.28;;;22.35;51.99
57708;BME280;43540;51.690;9.562;2023-07-13T15:05:51;99254.69;;;22.66;54.13
57708;BME280;43540;51.690;9.562;2023-07-13T15:08:19;99253.25;;;22.77;52.20
57708;BME280;43540;51.690;9.562;2023-07-13T15:10:46;99284.00;;;23.39;51.23
57708;BME280;43540;51.690;9.562;2023-07-13T15:13:18;99318.50;;;23.67;51.79
57708;BME280;43540;51.690;9.562;2023-07-13T15:15:50;99304.03;;;23.16;51.81
57708;BME280;43540;51.690;9.562;2023-07-13T15:18:20;99309.94;;;23.45;50.78
57708;BME280;43540;51.690;9.562;2023-07-13T15:20:48;99188.94;;;22.78;49.03
57708;BME280;43540;51.690;9.562;2023-07-13T15:23:17;99275.88;;;23.14;47.69
57708;BME280;43540;51.690;9.562;2023-07-13T15:25:44;99282.19;;;23.33;46.88
57708;BME280;43540;51.690;9.562;2023-07-13T15:28:12;99245.34;;;23.35;46.97
57708;BME280;43540;51.690;9.562;2023-07-13T15:30:44;99237.84;;;22.85;48.67
57708;BME280;43540;51.690;9.562;2023-07-13T15:33:15;99165.94;;;22.64;47.52
57708;BME280;43540;51.690;9.562;2023-07-13T15:35:45;99296.34;;;23.60;45.12
57708;BME280;43540;51.690;9.562;2023-07-13T15:38:15;99203.53;;;22.49;47.03
57708;BME280;43540;51.690;9.562;2023-07-13T15:40:43;99240.34;;;22.60;47.98
57708;BME280;43540;51.690;9.562;2023-07-13T15:43:11;99273.22;;;22.61;48.81
57708;BME280;43540;51.690;9.562;2023-07-13T15:45:38;99245.22;;;22.30;50.74
57708;BME280;43540;51.690;9.562;2023-07-13T15:48:17;99297.00;;;22.49;51.54
57708;BME280;43540;51.690;9.562;2023-07-13T15:50:55;99230.03;;;22.11;51.40
57708;BME280;43540;51.690;9.562;2023-07-13T15:53:31;99251.00;;;21.66;52.98
57708;BME280;43540;51.690;9.562;2023-07-13T15:55:59;99291.47;;;20.72;59.92
57708;BME280;43540;51.690;9.562;2023-07-13T15:58:28;99271.94;;;20.23;63.71
57708;BME280;43540;51.690;9.562;2023-07-13T16:00:55;99266.97;;;19.47;68.54
57708;BME280;43540;51.690;9.562;2023-07-13T16:03:21;99200.75;;;18.87;72.61
57708;BME280;43540;51.690;9.562;2023-07-13T16:05:49;99196.47;;;18.48;74.78
57708;BME280;43540;51.690;9.562;2023-07-13T16:08:28;99356.78;;;19.37;77.85
57708;BME280;43540;51.690;9.562;2023-07-13T16:10:58;99298.38;;;18.99;79.04
57708;BME280;43540;51.690;9.562;2023-07-13T16:13:25;99286.28;;;18.59;80.30
57708;BME280;43540;51.690;9.562;2023-07-13T16:15:53;99344.50;;;18.69;81.96
57708;BME280;43540;51.690;9.562;2023-07-13T16:18:22;99364.75;;;18.62;84.26
57708;BME280;43540;51.690;9.562;2023-07-13T16:20:49;99350.06;;;18.51;86.17
57708;BME280;43540;51.690;9.562;2023-07-13T16:23:17;99321.97;;;18.34;89.14
57708;BME280;43540;51.690;9.562;2023-07-13T16:25:47;99250.56;;;18.01;90.56
57708;BME280;43540;51.690;9.562;2023-07-13T16:28:15;99325.88;;;18.46;93.58
57708;BME280;43540;51.690;9.562;2023-07-13T16:30:42;99383.78;;;18.42;97.55
57708;BME280;43540;51.690;9.562;2023-07-13T16:33:08;99331.34;;;17.90;99.34
57708;BME280;43540;51.690;9.562;2023-07-13T16:35:37;99408.88;;;18.01;100.00
57708;BME280;43540;51.690;9.562;2023-07-13T16:38:17;99397.38;;;17.77;100.00
57708;BME280;43540;51.690;9.562;2023-07-13T16:40:45;99363.69;;;17.22;100.00
57708;BME280;43540;51.690;9.562;2023-07-13T16:43:16;99402.91;;;17.35;100.00
57708;BME280;43540;51.690;9.562;2023-07-13T16:45:48;99415.78;;;17.46;100.00
57708;BME280;43540;51.690;9.562;2023-07-13T16:48:19;99405.44;;;17.20;100.00
57708;BME280;43540;51.690;9.562;2023-07-13T16:50:52;99412.19;;;17.23;100.00
57708;BME280;43540;51.690;9.562;2023-07-13T16:53:28;99402.25;;;17.41;100.00
57708;BME280;43540;51.690;9.562;2023-07-13T16:55:55;99322.19;;;16.90;100.00
